Time;durP1;ratioP1;P1;durP2;ratioP2;P2;SDS_P1;SDS_P2;PMS_P1;PMS_P2;Temp;Humidity;BMP_temperature;BMP_pressure;BME280_temperature;BME280_humidity;BME280_pressure;Samples;Min_cycle;Max_cycle;Signal;HPM_P1;HPM_P2
2023/01/27 00:01:21;;;;;;;5.85;1.42;;;25.30;99.90;;;;;;5055621;28;20211;-79
2023/01/27 00:03:52;;;;;;;6.20;1.42;;;25.40;99.90;;;;;;5072317;28;20196;-80
2023/01/27 00:06:25;;;;;;;5.47;1.50;;;25.50;99.90;;;;;;5073004;28;20291;-79
2023/01/27 00:08:58;;;;;;;6.75;1.33;;;25.60;99.90;;;;;;5068495;28;20195;-78
2023/01/27 00:14:16;;;;;;;4.18;1.13;;;25.80;99.90;;;;;;5073122;28;20284;-79
2023/01/27 00:16:47;;;;;;;6.07;1.27;;;25.80;99.90;;;;;;5067189;28;20224;-79
2023/01/27 00:19:18;;;;;;;7.65;1.40;;;25.90;99.90;;;;;;5063465;28;20299;-79
2023/01/27 00:24:38;;;;;;;6.30;1.65;;;26.00;99.90;;;;;;5071540;28;20198;-79
2023/01/27 00:27:10;;;;;;;4.20;1.45;;;26.10;99.90;;;;;;5071916;28;20208;-79
2023/01/27 00:29:41;;;;;;;4.13;1.10;;;26.20;99.90;;;;;;5070467;28;20240;-78
2023/01/27 00:35:00;;;;;;;5.10;1.17;;;26.10;99.90;;;;;;5071379;28;20704;-79
2023/01/27 00:37:30;;;;;;;3.75;1.27;;;26.20;99.90;;;;;;5057668;28;20234;-78
2023/01/27 00:40:03;;;;;;;5.05;1.40;;;26.20;99.90;;;;;;5070150;28;20191;-78
2023/01/27 00:42:34;;;;;;;6.30;1.45;;;26.20;99.90;;;;;;5071733;28;20659;-79
2023/01/27 00:47:52;;;;;;;6.00;1.65;;;26.40;99.90;;;;;;5071594;28;20685;-78
2023/01/27 00:50:23;;;;;;;5.65;1.20;;;26.40;99.90;;;;;;5067036;28;20565;-78
2023/01/27 00:52:54;;;;;;;7.40;1.65;;;26.50;99.90;;;;;;5070590;28;20204;-79
2023/01/27 00:55:27;;;;;;;3.20;1.40;;;26.40;99.90;;;;;;5070026;28;20658;-79
2023/01/27 00:57:58;;;;;;;4.13;1.40;;;26.40;99.90;;;;;;5072263;28;20229;-78
2023/01/27 01:00:29;;;;;;;7.53;1.60;;;26.50;99.90;;;;;;5053060;28;20219;-79
2023/01/27 01:03:00;;;;;;;6.82;1.65;;;26.60;99.90;;;;;;5071777;28;20646;-79
2023/01/27 01:05:31;;;;;;;9.05;1.73;;;26.60;99.90;;;;;;5072150;28;20742;-78
2023/01/27 01:08:02;;;;;;;4.28;1.55;;;26.70;99.90;;;;;;5070781;28;20287;-78
2023/01/27 01:10:35;;;;;;;7.88;1.63;;;26.80;99.90;;;;;;5052486;28;20208;-79
2023/01/27 01:13:08;;;;;;;6.47;1.55;;;26.70;99.90;;;;;;5069603;28;20206;-79
2023/01/27 01:15:41;;;;;;;7.05;1.73;;;26.70;99.90;;;;;;5070166;28;20211;-78
2023/01/27 01:18:12;;;;;;;6.50;1.90;;;26.80;99.90;;;;;;5070468;28;20220;-79
2023/01/27 01:20:46;;;;;;;4.22;1.40;;;26.80;99.90;;;;;;5068560;28;20386;-79
2023/01/27 01:23:18;;;;;;;7.65;1.63;;;26.80;99.90;;;;;;5071468;28;20200;-81
2023/01/27 01:25:58;;;;;;;9.13;1.58;;;26.90;99.90;;;;;;5071177;28;20196;-80
2023/01/27 01:28:29;;;;;;;6.15;1.55;;;27.00;99.90;;;;;;5064213;28;20708;-80
2023/01/27 01:31:05;;;;;;;4.15;1.33;;;27.10;99.90;;;;;;5067585;28;20192;-79
2023/01/27 01:33:37;;;;;;;4.70;1.45;;;27.10;99.90;;;;;;5070808;28;20202;-81
2023/01/27 01:36:10;;;;;;;6.70;1.50;;;27.10;99.90;;;;;;5070978;28;20279;-80
2023/01/27 01:38:41;;;;;;;7.00;1.48;;;27.00;99.90;;;;;;5070221;28;20231;-80
2023/01/27 01:41:18;;;;;;;8.15;1.95;;;27.00;99.90;;;;;;5068361;28;20586;-80
2023/01/27 01:43:49;;;;;;;8.27;1.90;;;27.00;99.90;;;;;;5058764;28;20676;-80
2023/01/27 01:46:20;;;;;;;7.57;1.60;;;27.10;99.90;;;;;;5067156;28;20210;-80
2023/01/27 01:48:56;;;;;;;9.70;1.70;;;27.20;99.90;;;;;;5060165;28;20200;-80
2023/01/27 01:51:30;;;;;;;5.65;1.45;;;27.30;99.90;;;;;;5070585;28;20203;-80
2023/01/27 01:54:05;;;;;;;5.72;1.42;;;27.30;99.90;;;;;;5071460;28;20195;-80
2023/01/27 01:56:40;;;;;;;6.22;1.55;;;27.30;99.90;;;;;;5069197;28;20191;-79
2023/01/27 01:59:16;;;;;;;6.15;1.67;;;27.40;99.90;;;;;;5048512;28;20206;-80
2023/01/27 02:01:47;;;;;;;9.75;1.77;;;27.40;99.90;;;;;;5044859;28;20199;-80
2023/01/27 02:04:25;;;;;;;7.10;2.10;;;27.30;99.90;;;;;;5044181;28;20204;-80
2023/01/27 02:07:03;;;;;;;6.55;1.52;;;27.40;99.90;;;;;;5046916;28;20208;-81
2023/01/27 02:09:34;;;;;;;6.72;1.58;;;27.40;99.90;;;;;;5044616;28;20195;-79
2023/01/27 02:12:08;;;;;;;6.75;2.15;;;27.20;99.90;;;;;;5056338;28;20210;-80
2023/01/27 02:14:39;;;;;;;10.98;2.38;;;27.20;99.90;;;;;;5044991;28;20192;-80
2023/01/27 02:17:12;;;;;;;8.90;2.00;;;27.10;99.90;;;;;;5044766;28;20212;-81
2023/01/27 02:19:55;;;;;;;6.35;1.67;;;27.10;99.90;;;;;;5049121;28;20428;-81
2023/01/27 02:22:32;;;;;;;9.30;1.80;;;27.00;99.90;;;;;;5043971;28;20516;-81
2023/01/27 02:25:11;;;;;;;8.88;2.22;;;27.00;99.90;;;;;;5042842;28;20205;-81
2023/01/27 02:27:44;;;;;;;7.88;1.88;;;27.00;99.90;;;;;;5043202;28;20204;-80
2023/01/27 02:30:15;;;;;;;6.97;1.63;;;27.10;99.90;;;;;;5044250;28;20211;-81
2023/01/27 02:32:46;;;;;;;9.70;1.73;;;27.20;99.90;;;;;;5043595;28;20222;-81
2023/01/27 02:35:23;;;;;;;4.80;1.48;;;27.30;99.90;;;;;;5043288;28;20199;-81
2023/01/27 02:37:55;;;;;;;6.25;1.70;;;27.40;99.90;;;;;;5045479;28;20235;-80
2023/01/27 02:40:27;;;;;;;4.28;1.25;;;27.50;99.90;;;;;;5050975;28;20196;-81
2023/01/27 02:43:01;;;;;;;7.05;1.60;;;27.50;99.90;;;;;;5043963;28;20376;-80
2023/01/27 02:45:32;;;;;;;7.07;1.70;;;27.50;99.90;;;;;;5050927;28;20202;-80
2023/01/27 02:48:03;;;;;;;5.43;1.40;;;27.60;99.90;;;;;;5046023;28;20200;-79
2023/01/27 02:50:34;;;;;;;6.20;1.80;;;27.70;99.90;;;;;;5044638;28;20691;-80
2023/01/27 02:53:06;;;;;;;5.18;1.33;;;27.70;99.90;;;;;;5044108;28;20203;-79
2023/01/27 02:55:37;;;;;;;8.00;1.52;;;27.70;99.90;;;;;;5044145;28;20204;-80
2023/01/27 02:58:10;;;;;;;3.72;1.33;;;27.60;99.90;;;;;;5043673;28;20262;-80
2023/01/27 03:00:41;;;;;;;5.68;1.60;;;27.60;99.90;;;;;;5054176;28;20224;-79
2023/01/27 03:03:12;;;;;;;7.65;1.83;;;27.60;99.90;;;;;;5048742;28;20997;-80
2023/01/27 03:05:43;;;;;;;7.03;1.70;;;27.60;99.90;;;;;;5044210;28;20567;-79
2023/01/27 03:08:14;;;;;;;7.60;1.60;;;27.80;99.90;;;;;;5044409;28;20200;-82
2023/01/27 03:10:45;;;;;;;4.03;1.48;;;27.80;99.90;;;;;;5055872;28;20199;-79
2023/01/27 03:13:17;;;;;;;5.28;1.40;;;27.90;99.90;;;;;;5056653;28;20196;-79
2023/01/27 03:18:35;;;;;;;4.57;1.23;;;28.00;99.90;;;;;;5048089;28;20268;-79
2023/01/27 03:21:08;;;;;;;5.55;1.80;;;28.00;99.90;;;;;;5053644;28;20196;-80
2023/01/27 03:23:39;;;;;;;5.65;1.60;;;28.10;99.90;;;;;;5048304;28;20266;-80
2023/01/27 03:26:11;;;;;;;6.53;1.58;;;28.10;99.90;;;;;;5048723;28;20650;-80
2023/01/27 03:29:53;;;;;;;4.22;1.40;;;28.00;99.90;;;;;;5046103;28;21270;-80
2023/01/27 03:31:36;;;;;;;3.90;1.35;;;28.00;99.90;;;;;;5048002;28;20200;-79
2023/01/27 03:34:07;;;;;;;8.75;1.95;;;28.00;99.90;;;;;;5047860;28;20207;-80
2023/01/27 03:47:47;;;;;;;4.03;1.80;;;28.10;99.90;;;;;;5046590;28;20207;-79
2023/01/27 03:50:19;;;;;;;7.38;1.45;;;28.10;99.90;;;;;;5047149;28;20887;-79
2023/01/27 03:53:03;;;;;;;3.03;1.40;;;28.10;99.90;;;;;;5046678;28;20196;-80
2023/01/27 03:55:35;;;;;;;8.98;1.63;;;28.10;99.90;;;;;;5050154;28;20555;-80
2023/01/27 03:58:17;;;;;;;4.70;1.30;;;28.20;99.90;;;;;;5045554;28;20231;-78
2023/01/27 04:00:53;;;;;;;6.03;1.17;;;28.10;99.90;;;;;;5046716;28;20196;-78
2023/01/27 04:09:01;;;;;;;5.80;1.30;;;28.40;99.90;;;;;;5047180;28;20286;-78
2023/01/27 04:14:21;;;;;;;5.00;1.15;;;28.50;99.90;;;;;;5047751;28;20253;-79
2023/01/27 04:16:55;;;;;;;4.82;1.55;;;28.60;99.90;;;;;;5045518;28;21506;-79
2023/01/27 04:19:26;;;;;;;5.97;1.52;;;28.50;99.90;;;;;;5046882;28;20717;-79
2023/01/27 04:21:59;;;;;;;6.10;1.48;;;28.60;99.90;;;;;;5045580;28;20783;-80
2023/01/27 04:24:30;;;;;;;6.45;1.60;;;28.60;99.90;;;;;;5047005;28;20200;-79
2023/01/27 04:27:02;;;;;;;4.68;1.55;;;28.60;99.90;;;;;;5046951;28;20211;-80
2023/01/27 04:29:34;;;;;;;5.75;1.33;;;28.60;99.90;;;;;;5052984;28;20221;-81
2023/01/27 04:32:10;;;;;;;5.18;1.65;;;28.70;99.90;;;;;;5046558;28;20208;-81
2023/01/27 04:34:42;;;;;;;5.80;1.67;;;28.80;99.90;;;;;;5046461;28;20207;-81
2023/01/27 04:37:13;;;;;;;5.63;1.15;;;28.80;99.90;;;;;;5047614;28;20285;-81
2023/01/27 04:39:46;;;;;;;6.75;1.50;;;28.90;99.90;;;;;;5048402;28;20251;-82
2023/01/27 04:42:17;;;;;;;5.80;1.45;;;28.90;99.90;;;;;;5047623;28;20196;-80
2023/01/27 04:44:48;;;;;;;4.90;1.48;;;28.90;99.90;;;;;;5064700;28;20204;-81
2023/01/27 04:47:22;;;;;;;8.00;1.70;;;28.80;99.90;;;;;;5072923;28;20199;-81
2023/01/27 04:49:53;;;;;;;5.32;1.20;;;28.70;99.90;;;;;;5072680;28;20191;-81
2023/01/27 04:52:24;;;;;;;7.47;1.90;;;28.70;99.90;;;;;;5070900;28;20284;-80
2023/01/27 04:54:55;;;;;;;5.78;1.40;;;28.70;99.90;;;;;;5063876;28;20211;-82
2023/01/27 04:57:26;;;;;;;8.20;1.60;;;28.70;99.90;;;;;;5063511;28;20206;-81
2023/01/27 04:59:57;;;;;;;8.85;1.70;;;28.80;99.90;;;;;;5052261;28;20202;-81
2023/01/27 05:02:30;;;;;;;4.70;1.30;;;28.80;99.90;;;;;;5047240;28;20204;-81
2023/01/27 05:05:03;;;;;;;8.27;1.88;;;28.90;99.90;;;;;;5046817;28;20237;-81
2023/01/27 05:07:34;;;;;;;9.57;2.03;;;29.00;99.90;;;;;;5046254;28;20204;-82
2023/01/27 05:10:05;;;;;;;12.43;1.73;;;29.00;99.90;;;;;;5054826;28;20287;-81
2023/01/27 05:12:36;;;;;;;5.13;1.60;;;29.10;99.90;;;;;;5058340;28;20855;-81
2023/01/27 05:15:08;;;;;;;7.00;1.60;;;29.10;99.90;;;;;;5046783;28;20569;-82
2023/01/27 05:17:42;;;;;;;6.90;1.55;;;29.30;99.90;;;;;;5043851;28;20200;-82
2023/01/27 05:20:14;;;;;;;5.03;1.58;;;29.30;99.90;;;;;;5050282;28;20219;-82
2023/01/27 05:22:44;;;;;;;6.68;1.38;;;29.40;99.90;;;;;;5043162;28;20690;-82
2023/01/27 05:25:16;;;;;;;7.55;1.70;;;29.50;99.90;;;;;;5044875;28;20578;-82
2023/01/27 05:27:47;;;;;;;6.82;1.50;;;29.70;99.90;;;;;;5044306;28;20247;-82
2023/01/27 05:30:18;;;;;;;9.73;1.80;;;29.90;99.90;;;;;;5051875;28;20202;-82
2023/01/27 05:32:51;;;;;;;4.55;1.55;;;29.80;99.90;;;;;;5043774;28;20196;-82
2023/01/27 05:35:22;;;;;;;7.90;1.75;;;30.00;99.90;;;;;;5045260;28;20200;-82
2023/01/27 05:37:53;;;;;;;8.38;1.80;;;29.90;99.90;;;;;;5047006;28;20206;-81
2023/01/27 05:40:26;;;;;;;5.97;1.67;;;29.90;99.90;;;;;;5069670;28;20200;-80
2023/01/27 05:42:57;;;;;;;7.57;1.50;;;30.00;99.90;;;;;;5047330;28;20204;-82
2023/01/27 05:45:28;;;;;;;4.60;1.38;;;30.10;99.90;;;;;;5045653;28;20679;-82
2023/01/27 05:48:01;;;;;;;8.48;1.75;;;29.80;99.90;;;;;;5047591;28;20226;-81
2023/01/27 05:50:32;;;;;;;5.05;1.45;;;29.80;99.90;;;;;;5045697;28;20230;-82
2023/01/27 05:53:03;;;;;;;5.78;1.50;;;29.60;99.90;;;;;;5045983;28;20802;-82
2023/01/27 05:55:34;;;;;;;5.05;1.60;;;29.40;99.90;;;;;;5046515;28;20716;-81
2023/01/27 05:58:05;;;;;;;5.95;1.52;;;29.20;99.90;;;;;;5045845;28;20219;-81
2023/01/27 06:00:36;;;;;;;7.13;1.50;;;29.10;99.90;;;;;;5050607;28;20196;-82
2023/01/27 06:03:09;;;;;;;4.82;1.60;;;28.90;99.90;;;;;;5045175;28;20199;-81
2023/01/27 06:05:40;;;;;;;5.72;1.40;;;28.70;99.90;;;;;;5043677;28;21305;-81
2023/01/27 06:08:11;;;;;;;6.25;1.60;;;28.60;99.90;;;;;;5045521;28;20220;-81
2023/01/27 06:10:42;;;;;;;8.70;2.13;;;28.60;99.90;;;;;;5047586;28;20196;-81
2023/01/27 06:13:13;;;;;;;5.97;1.70;;;28.70;99.90;;;;;;5058768;28;20662;-80
2023/01/27 06:15:45;;;;;;;7.47;1.80;;;28.60;99.90;;;;;;5044560;28;20200;-80
2023/01/27 06:18:20;;;;;;;6.70;1.80;;;28.60;99.90;;;;;;5043750;28;21548;-81
2023/01/27 06:20:51;;;;;;;7.63;1.90;;;28.60;99.90;;;;;;5047711;28;20200;-81
2023/01/27 06:23:23;;;;;;;9.15;2.25;;;28.60;99.90;;;;;;5042442;28;20200;-81
2023/01/27 06:25:54;;;;;;;11.30;2.35;;;28.50;99.90;;;;;;5043155;28;20207;-81
2023/01/27 06:28:25;;;;;;;8.50;2.28;;;28.40;99.90;;;;;;5044152;28;20223;-80
2023/01/27 06:30:56;;;;;;;7.57;2.33;;;28.30;99.90;;;;;;5044363;28;20204;-81
2023/01/27 06:33:29;;;;;;;9.15;2.40;;;28.10;99.90;;;;;;5046219;28;20200;-81
2023/01/27 06:36:04;;;;;;;8.55;2.60;;;28.00;99.90;;;;;;5045396;28;20287;-80
2023/01/27 06:38:36;;;;;;;10.27;2.60;;;27.80;99.90;;;;;;5045078;28;21026;-81
2023/01/27 06:41:07;;;;;;;10.95;2.58;;;27.80;99.90;;;;;;5051320;28;20300;-81
2023/01/27 06:43:38;;;;;;;7.57;2.28;;;27.70;99.90;;;;;;5044172;28;20718;-79
2023/01/27 06:46:09;;;;;;;14.30;3.58;;;27.60;99.90;;;;;;5052811;28;20196;-81
2023/01/27 06:48:42;;;;;;;6.30;2.20;;;27.60;99.90;;;;;;5043798;28;20206;-79
2023/01/27 06:51:13;;;;;;;9.80;2.60;;;27.60;99.90;;;;;;5044093;28;20547;-80
2023/01/27 06:53:44;;;;;;;11.02;2.22;;;27.60;99.90;;;;;;5044824;28;20253;-80
2023/01/27 06:56:14;;;;;;;10.90;2.40;;;28.20;99.90;;;;;;5044664;28;20205;-79
2023/01/27 06:58:45;;;;;;;7.35;2.00;;;28.20;99.90;;;;;;5044536;28;20224;-80
2023/01/27 07:01:20;;;;;;;11.82;2.45;;;28.20;99.90;;;;;;5048811;28;20678;-81
2023/01/27 07:03:53;;;;;;;5.28;2.00;;;28.10;99.90;;;;;;5044456;28;20568;-80
2023/01/27 07:06:24;;;;;;;6.50;1.95;;;28.00;99.90;;;;;;5044355;28;20287;-80
2023/01/27 07:08:55;;;;;;;7.35;2.00;;;28.00;99.90;;;;;;5045273;28;20226;-81
2023/01/27 07:11:26;;;;;;;7.60;2.28;;;28.00;99.90;;;;;;5044359;28;20230;-80
2023/01/27 07:13:57;;;;;;;9.02;2.53;;;27.90;99.90;;;;;;5061731;28;20223;-80
2023/01/27 07:16:30;;;;;;;8.05;2.30;;;28.00;99.90;;;;;;5049531;28;20632;-81
2023/01/27 07:19:04;;;;;;;7.85;2.40;;;28.00;99.90;;;;;;5043514;28;21731;-81
2023/01/27 07:21:35;;;;;;;9.85;2.40;;;28.70;99.90;;;;;;5052782;28;20283;-80
2023/01/27 07:24:06;;;;;;;9.48;2.60;;;29.50;99.90;;;;;;5043106;28;20204;-80
2023/01/27 07:26:37;;;;;;;7.72;2.35;;;29.70;99.90;;;;;;5045905;28;20669;-80
2023/01/27 07:29:08;;;;;;;9.20;2.58;;;30.00;99.90;;;;;;5044593;28;20230;-80
2023/01/27 07:31:39;;;;;;;7.63;2.15;;;30.60;99.90;;;;;;5044458;28;20207;-80
2023/01/27 07:34:12;;;;;;;8.15;2.40;;;30.50;99.90;;;;;;5043416;28;20204;-80
2023/01/27 07:36:43;;;;;;;7.95;2.08;;;30.40;99.90;;;;;;5042692;28;20200;-80
2023/01/27 07:39:15;;;;;;;10.80;2.25;;;30.70;99.90;;;;;;5045221;28;20223;-80
2023/01/27 07:41:46;;;;;;;8.02;2.22;;;31.00;99.90;;;;;;5042979;28;20678;-80
2023/01/27 07:44:17;;;;;;;9.35;2.08;;;30.60;99.90;;;;;;5042026;28;20891;-80
2023/01/27 07:46:48;;;;;;;10.50;2.47;;;30.00;99.90;;;;;;5047794;28;20337;-80
2023/01/27 07:49:21;;;;;;;8.77;2.38;;;30.10;99.90;;;;;;5043500;28;20204;-80
2023/01/27 07:51:52;;;;;;;9.95;2.28;;;30.40;99.90;;;;;;5045216;28;20196;-80
2023/01/27 07:54:24;;;;;;;8.70;2.00;;;30.00;99.90;;;;;;5043797;28;20200;-81
2023/01/27 07:56:55;;;;;;;7.20;2.40;;;29.70;99.90;;;;;;5045971;28;20663;-81
2023/01/27 07:59:26;;;;;;;6.03;1.92;;;29.40;99.90;;;;;;5045990;28;20484;-81
2023/01/27 08:01:58;;;;;;;10.27;2.47;;;29.20;99.90;;;;;;5046734;28;20596;-80
2023/01/27 08:04:31;;;;;;;9.98;2.95;;;29.10;99.90;;;;;;5047057;28;20196;-80
2023/01/27 08:07:02;;;;;;;10.88;3.45;;;28.80;99.90;;;;;;5046231;28;20326;-79
2023/01/27 08:09:33;;;;;;;10.52;2.50;;;28.80;99.90;;;;;;5047784;28;20271;-79
2023/01/27 08:12:04;;;;;;;8.90;2.33;;;28.70;99.90;;;;;;5047504;28;20206;-79
2023/01/27 08:14:35;;;;;;;6.18;2.47;;;28.70;99.90;;;;;;5048044;28;20200;-80
2023/01/27 08:17:06;;;;;;;9.70;2.17;;;28.70;99.90;;;;;;5060856;28;20219;-80
2023/01/27 08:19:39;;;;;;;7.75;2.00;;;28.50;99.90;;;;;;5046401;28;20235;-81
2023/01/27 08:22:09;;;;;;;7.82;1.90;;;28.40;99.90;;;;;;5046527;28;20208;-80
2023/01/27 08:24:40;;;;;;;10.60;2.88;;;28.30;99.90;;;;;;5046986;28;20196;-80
2023/01/27 08:27:11;;;;;;;8.27;2.65;;;28.20;99.90;;;;;;5054734;28;20222;-79
2023/01/27 08:29:43;;;;;;;8.98;2.45;;;28.00;99.90;;;;;;5056228;28;20227;-80
2023/01/27 08:32:14;;;;;;;8.05;2.05;;;27.80;99.90;;;;;;5047372;28;20258;-80
2023/01/27 08:34:47;;;;;;;9.98;2.67;;;27.60;99.90;;;;;;5047670;28;20208;-80
2023/01/27 08:37:18;;;;;;;12.20;2.50;;;27.50;99.90;;;;;;5046181;28;20211;-79
2023/01/27 08:39:50;;;;;;;11.07;2.60;;;27.40;99.90;;;;;;5047907;28;20216;-80
2023/01/27 08:42:21;;;;;;;8.13;2.60;;;27.30;99.90;;;;;;5045281;28;20203;-80
2023/01/27 08:44:52;;;;;;;9.45;2.75;;;27.10;99.90;;;;;;5045713;28;20437;-80
2023/01/27 08:47:23;;;;;;;11.98;2.60;;;27.10;99.90;;;;;;5050498;28;20196;-80
2023/01/27 08:49:56;;;;;;;10.85;2.80;;;27.00;99.90;;;;;;5046390;28;20226;-79
2023/01/27 08:52:29;;;;;;;15.50;3.20;;;26.90;99.90;;;;;;5045752;28;20246;-80
2023/01/27 08:55:00;;;;;;;10.23;2.22;;;26.80;99.90;;;;;;5045319;28;20915;-80
2023/01/27 08:57:32;;;;;;;11.63;2.92;;;26.70;99.90;;;;;;5045562;28;20200;-80
2023/01/27 09:00:02;;;;;;;10.23;2.58;;;26.60;99.90;;;;;;5044332;28;20714;-79
2023/01/27 09:02:34;;;;;;;11.82;2.50;;;26.50;99.90;;;;;;5044934;28;20310;-80
2023/01/27 09:05:07;;;;;;;9.80;2.40;;;26.40;99.90;;;;;;5045486;28;20192;-80
2023/01/27 09:07:38;;;;;;;8.82;2.35;;;26.40;99.90;;;;;;5044859;28;20243;-80
2023/01/27 09:10:10;;;;;;;7.60;2.42;;;26.40;99.90;;;;;;5046529;28;20311;-80
2023/01/27 09:12:41;;;;;;;10.27;2.70;;;26.30;99.90;;;;;;5045846;28;20207;-81
2023/01/27 09:15:13;;;;;;;11.75;2.90;;;26.30;99.90;;;;;;5051618;28;20200;-81
2023/01/27 09:17:44;;;;;;;8.40;2.75;;;26.20;99.90;;;;;;5062824;28;20214;-81
2023/01/27 09:20:17;;;;;;;8.75;2.75;;;26.20;99.90;;;;;;5056745;28;20591;-81
2023/01/27 09:22:48;;;;;;;8.07;2.60;;;26.20;99.90;;;;;;5046130;28;20599;-81
2023/01/27 09:25:20;;;;;;;8.85;2.45;;;26.20;99.90;;;;;;5045171;28;20812;-82
2023/01/27 09:27:56;;;;;;;8.57;2.80;;;26.20;99.90;;;;;;5045203;28;20226;-82
2023/01/27 09:30:28;;;;;;;8.65;2.08;;;26.20;99.90;;;;;;5047197;28;20884;-81
2023/01/27 09:33:02;;;;;;;6.15;2.35;;;26.20;99.90;;;;;;5047174;28;20204;-82
2023/01/27 09:35:42;;;;;;;9.18;2.92;;;26.20;99.90;;;;;;5046046;28;20200;-80
2023/01/27 09:38:14;;;;;;;9.93;2.97;;;26.20;99.90;;;;;;5045248;28;20199;-80
2023/01/27 09:40:59;;;;;;;8.05;2.30;;;26.20;99.90;;;;;;5044410;28;20231;-79
2023/01/27 09:44:10;;;;;;;7.70;2.60;;;26.20;99.90;;;;;;5043662;28;20200;-80
2023/01/27 09:47:00;;;;;;;6.03;2.40;;;26.20;99.90;;;;;;5057051;28;20311;-80
2023/01/27 09:49:50;;;;;;;9.45;3.00;;;26.20;99.90;;;;;;5045300;28;20200;-79
2023/01/27 09:52:42;;;;;;;7.80;3.10;;;26.30;99.90;;;;;;5043684;28;20204;-80
2023/01/27 09:55:19;;;;;;;6.78;3.00;;;26.30;99.90;;;;;;5045484;28;20196;-80
2023/01/27 09:57:58;;;;;;;6.50;2.60;;;26.30;99.90;;;;;;5044371;28;20207;-81
2023/01/27 10:00:45;;;;;;;9.13;2.72;;;26.30;99.90;;;;;;5045356;28;20223;-79
2023/01/27 10:03:35;;;;;;;7.93;3.10;;;26.30;99.90;;;;;;5045508;28;20210;-80
2023/01/27 10:06:34;;;;;;;7.07;2.70;;;26.30;99.90;;;;;;5043690;28;20230;-81
2023/01/27 10:09:42;;;;;;;8.40;2.72;;;26.40;99.90;;;;;;5043102;28;20208;-79
2023/01/27 10:12:28;;;;;;;8.32;2.45;;;26.40;99.90;;;;;;5045314;28;20195;-80
2023/01/27 10:15:38;;;;;;;8.63;2.60;;;26.30;99.90;;;;;;5053717;28;20688;-81
2023/01/27 10:18:28;;;;;;;6.20;2.20;;;26.20;99.90;;;;;;5073980;28;20204;-80
2023/01/27 10:21:07;;;;;;;7.68;2.55;;;26.20;99.90;;;;;;5071308;28;20299;-78
2023/01/27 10:23:52;;;;;;;11.43;2.80;;;26.20;99.90;;;;;;5054125;28;20754;-80
2023/01/27 10:26:32;;;;;;;7.05;2.58;;;26.20;99.90;;;;;;5056352;28;20586;-80
2023/01/27 10:29:10;;;;;;;6.22;2.78;;;26.20;99.90;;;;;;5056126;28;20215;-80
2023/01/27 10:31:49;;;;;;;6.53;2.30;;;26.20;99.90;;;;;;5050828;28;20217;-80
2023/01/27 10:34:36;;;;;;;7.47;2.80;;;26.30;99.90;;;;;;5058010;28;20198;-81
2023/01/27 10:37:20;;;;;;;6.40;2.45;;;26.30;99.90;;;;;;5054122;28;20625;-80
2023/01/27 10:39:57;;;;;;;8.57;2.67;;;26.30;99.90;;;;;;5055216;28;20219;-80
2023/01/27 10:42:44;;;;;;;7.30;2.60;;;26.40;99.90;;;;;;5059232;28;20263;-81
2023/01/27 10:45:26;;;;;;;9.50;3.10;;;26.30;99.90;;;;;;5057255;28;20195;-80
2023/01/27 10:48:31;;;;;;;12.05;3.20;;;26.30;99.90;;;;;;5064406;28;20203;-80
2023/01/27 10:51:07;;;;;;;9.77;2.97;;;26.30;99.90;;;;;;5058923;28;20200;-80
2023/01/27 10:53:49;;;;;;;6.90;2.33;;;26.30;99.90;;;;;;5068504;28;20192;-81
2023/01/27 10:56:26;;;;;;;9.48;2.70;;;26.30;99.90;;;;;;5065655;28;20931;-81
2023/01/27 10:59:05;;;;;;;6.25;2.47;;;26.30;99.90;;;;;;5052058;28;20463;-80
2023/01/27 11:01:48;;;;;;;8.30;2.50;;;26.20;99.90;;;;;;5052926;28;20289;-80
2023/01/27 11:04:23;;;;;;;9.13;2.92;;;26.20;99.90;;;;;;5058167;28;20268;-80
2023/01/27 11:06:58;;;;;;;6.78;2.20;;;26.20;99.90;;;;;;5055570;28;20191;-80
2023/01/27 11:09:31;;;;;;;12.55;2.80;;;26.20;99.90;;;;;;5055590;28;21063;-81
2023/01/27 11:12:14;;;;;;;7.22;2.53;;;26.20;99.90;;;;;;5055441;28;20267;-81
2023/01/27 11:14:49;;;;;;;6.32;2.33;;;26.20;99.90;;;;;;5057238;28;20196;-80
2023/01/27 11:17:27;;;;;;;7.90;2.67;;;26.20;99.90;;;;;;5051041;28;20203;-80
2023/01/27 11:20:07;;;;;;;7.07;2.30;;;26.10;99.90;;;;;;5060319;28;20337;-80
2023/01/27 11:22:46;;;;;;;9.80;2.70;;;26.10;99.90;;;;;;5066655;28;20210;-80
2023/01/27 11:25:26;;;;;;;10.18;2.50;;;26.10;99.90;;;;;;5058697;28;20545;-79
2023/01/27 11:28:21;;;;;;;8.02;2.45;;;26.00;99.90;;;;;;5057558;28;20215;-81
2023/01/27 11:31:00;;;;;;;9.73;2.33;;;26.00;99.90;;;;;;5064701;28;20197;-82
2023/01/27 11:33:41;;;;;;;9.73;2.50;;;25.90;99.90;;;;;;5063064;28;20522;-81
2023/01/27 11:36:12;;;;;;;6.20;2.00;;;25.90;99.90;;;;;;5064182;28;20200;-81
2023/01/27 11:38:43;;;;;;;7.82;2.20;;;25.90;99.90;;;;;;5060864;28;21496;-81
2023/01/27 11:41:17;;;;;;;6.57;1.95;;;26.00;99.90;;;;;;5058215;28;20289;-81
2023/01/27 11:43:48;;;;;;;7.10;2.40;;;25.90;99.90;;;;;;5056653;28;20199;-81
2023/01/27 11:46:27;;;;;;;9.60;2.42;;;25.90;99.90;;;;;;5059164;28;20258;-81
2023/01/27 11:49:02;;;;;;;6.72;2.20;;;25.90;99.90;;;;;;5058634;28;20600;-80
2023/01/27 11:51:41;;;;;;;8.43;2.63;;;25.90;99.90;;;;;;5062758;28;20199;-81
2023/01/27 11:54:19;;;;;;;8.10;2.35;;;25.90;99.90;;;;;;5058024;28;20203;-81
2023/01/27 11:56:51;;;;;;;7.20;2.38;;;26.00;99.90;;;;;;5058384;28;20196;-81
2023/01/27 11:59:25;;;;;;;8.00;2.45;;;26.00;99.90;;;;;;5055717;28;20448;-81
2023/01/27 12:02:06;;;;;;;9.32;2.58;;;26.00;99.90;;;;;;5057628;28;20259;-81
2023/01/27 12:04:51;;;;;;;6.72;2.28;;;26.00;99.90;;;;;;5052777;28;20203;-81
2023/01/27 12:07:30;;;;;;;11.18;2.78;;;26.00;99.90;;;;;;5051060;28;20200;-81
2023/01/27 12:10:02;;;;;;;6.65;2.13;;;26.00;99.90;;;;;;5051811;28;20677;-81
2023/01/27 12:12:33;;;;;;;10.98;2.55;;;26.00;99.90;;;;;;5047181;28;20215;-81
2023/01/27 12:15:16;;;;;;;10.85;2.70;;;26.10;99.90;;;;;;5047664;28;20200;-81
2023/01/27 12:17:50;;;;;;;8.75;2.50;;;26.10;99.90;;;;;;5046721;28;20557;-81
2023/01/27 12:20:32;;;;;;;9.27;2.80;;;26.00;99.90;;;;;;5055908;28;20242;-81
2023/01/27 12:23:09;;;;;;;7.85;2.50;;;26.00;99.90;;;;;;5060725;28;20210;-81
2023/01/27 12:25:47;;;;;;;8.93;2.55;;;25.90;99.90;;;;;;5047367;28;20601;-81
2023/01/27 12:28:30;;;;;;;7.55;2.25;;;25.90;99.90;;;;;;5046195;28;20223;-81
2023/01/27 12:31:11;;;;;;;11.48;2.63;;;26.00;99.90;;;;;;5047585;28;20785;-81
2023/01/27 12:33:52;;;;;;;10.25;2.40;;;26.00;99.90;;;;;;5047635;28;20794;-83
2023/01/27 12:36:25;;;;;;;7.22;2.30;;;25.90;99.90;;;;;;5054410;28;20200;-81
2023/01/27 12:38:58;;;;;;;7.25;2.38;;;25.90;99.90;;;;;;5048570;28;20291;-81
2023/01/27 12:41:32;;;;;;;9.18;2.20;;;25.90;99.90;;;;;;5044707;28;20295;-81
2023/01/27 12:44:18;;;;;;;8.98;2.45;;;25.90;99.90;;;;;;5048532;28;20262;-81
2023/01/27 12:47:02;;;;;;;8.32;2.63;;;26.00;99.90;;;;;;5059639;28;20480;-81
2023/01/27 12:49:39;;;;;;;7.75;2.25;;;26.00;99.90;;;;;;5046083;28;20204;-81
2023/01/27 12:52:17;;;;;;;9.15;2.75;;;25.90;99.90;;;;;;5048958;28;20689;-81
2023/01/27 12:54:50;;;;;;;8.77;2.53;;;25.90;99.90;;;;;;5045793;28;20393;-81
2023/01/27 12:57:23;;;;;;;9.02;2.53;;;25.90;99.90;;;;;;5048889;28;20330;-81
2023/01/27 12:59:56;;;;;;;7.68;2.35;;;25.90;99.90;;;;;;5048327;28;20567;-80
2023/01/27 13:02:32;;;;;;;7.07;2.30;;;25.90;99.90;;;;;;5045141;28;21410;-81
2023/01/27 13:05:08;;;;;;;7.60;2.20;;;25.90;99.90;;;;;;5044891;28;20199;-80
2023/01/27 13:07:46;;;;;;;6.32;2.00;;;25.90;99.90;;;;;;5050827;28;20222;-81
2023/01/27 13:10:23;;;;;;;7.20;2.38;;;25.90;99.90;;;;;;5046139;28;20307;-80
2023/01/27 13:12:55;;;;;;;8.27;2.20;;;25.90;99.90;;;;;;5044676;28;20196;-80
2023/01/27 13:15:27;;;;;;;6.57;2.15;;;25.90;99.90;;;;;;5045923;28;20200;-80
2023/01/27 13:17:59;;;;;;;7.05;2.20;;;25.90;99.90;;;;;;5045102;28;20693;-80
2023/01/27 13:20:36;;;;;;;6.93;2.40;;;25.90;99.90;;;;;;5050748;28;20235;-80
2023/01/27 13:23:12;;;;;;;8.55;2.47;;;25.90;99.90;;;;;;5059302;28;20227;-80
2023/01/27 13:25:48;;;;;;;6.05;2.40;;;26.00;99.90;;;;;;5044657;28;20203;-80
2023/01/27 13:28:33;;;;;;;10.35;2.90;;;26.00;99.90;;;;;;5046740;28;20689;-80
2023/01/27 13:31:08;;;;;;;6.97;2.28;;;26.00;99.90;;;;;;5046765;28;21119;-80
2023/01/27 13:33:46;;;;;;;7.93;2.33;;;26.10;99.90;;;;;;5050109;28;20207;-80
2023/01/27 13:36:30;;;;;;;6.68;2.13;;;26.10;99.90;;;;;;5046322;28;20283;-81
2023/01/27 13:39:06;;;;;;;8.50;2.53;;;26.10;99.90;;;;;;5045382;28;20198;-81
2023/01/27 13:41:44;;;;;;;5.75;2.38;;;26.10;99.90;;;;;;5047054;28;20713;-81
2023/01/27 13:44:23;;;;;;;6.90;2.42;;;26.10;99.90;;;;;;5044539;28;20670;-81
2023/01/27 13:46:57;;;;;;;7.65;2.35;;;26.10;99.90;;;;;;5045718;28;20214;-80
2023/01/27 13:49:37;;;;;;;8.27;2.40;;;26.10;99.90;;;;;;5045199;28;20619;-81
2023/01/27 13:52:12;;;;;;;6.68;2.00;;;26.10;99.90;;;;;;5047620;28;20241;-81
2023/01/27 13:54:44;;;;;;;6.05;2.22;;;26.20;99.90;;;;;;5045709;28;20204;-81
2023/01/27 13:57:55;;;;;;;9.02;2.40;;;26.20;99.90;;;;;;5042976;28;20211;-81